Portada
METAR-TAF:

METAR-TAF

Aeroports :

Kupang, Indonèsia

latitud: 10-10-17S, longitud: 123-40-16E, altitud: 102 m

Observació

L'informe es va fer fa 25 minuts, a les 00:30 UTC
Vent 5 kt del Est/Sud-Est, variant entre Est/Nord-Est i Sud/Sud-Est
Temperatura 30°C
Humitat 79%
Pressió 1011 hPa
Visibilitat 10 km o més
Escasses núvols a una alçada de 1700 ft

METAR: WATT 300030Z 11005KT 070V150 9999 FEW017 30/26 Q1011 NOSIG

Hora: 07:55 (00:55 UTC)

Pronòstic

L'informe es va fer fa 1 hora i 55 minuts, a les 23:00 UTC
Pronòstic vàlid del 30 a les 00 UTC al 30 a les 24 UTC
Vent 5 kt del Est/Sud-Est
Visibilitat 10 km o més
Escasses núvols a una alçada de 1700 ft
Evolucionant progressivament
l' 30 a les 03 UTC al 30 a les 05 UTC
Vent 10 kt del Nord-Oest
Cel ennuvolat a una alçada de 1600 ft

TAF: WATT 292300Z 3000/3024 11005KT 9999 FEW017 BECMG 3003/3005 32010KT BKN016

Observacions i pronòstics meteorològics de més de 4000 aeroports (METAR i TAF).

Les estacions disponibles són els punts grocs i vermells al mapa.

Posi el ratolí al punt desitjat per veure el nom de l'estació.

Feu clic per veure les observacions i els pronòstics meteorològics.

Per canviar el mapa: feu clic els botons verds amb una creu de color negre per apropar; al botó verd amb un guió per allunyar la imatge; o en les fletxes verdes per a mapes adjacents.


METAR-TAF: